<?xml version="1.0" encoding="UTF-8" standalone="no" ?>
<gpx xmlns="http://www.topografix.com/GPX/1/1" xmlns:xsi="http://www.w3.org/2001/XMLSchema-instance" xsi:schemaLocation="http://www.topografix.com/GPX/1/1 http://www.topografix.com/GPX/1/1/gpx.xsd" version="1.1" creator="VisuGPX - https://www.visugpx.com">
  <metadata>
    <name>La Croix Charbonnier</name>
    <desc><![CDATA[Croix charbonnier]]></desc>
  </metadata>
  <wpt lat="48.8713" lon="6.03163">
    <ele>258</ele>
    <name><![CDATA[Parking dans la forêt]]></name>
  </wpt>
  <wpt lat="48.86698" lon="6.0107">
    <ele>289</ele>
    <name><![CDATA[À gauche Chemin de la Fontaine]]></name>
  </wpt>
  <wpt lat="48.86209" lon="6.00592">
    <ele>261</ele>
    <name><![CDATA[Chemin à droite]]></name>
  </wpt>
  <wpt lat="48.86392" lon="6.00139">
    <ele>264</ele>
    <name><![CDATA[Tranchée du Haut Piémont]]></name>
  </wpt>
  <wpt lat="48.85784" lon="5.98317">
    <ele>301</ele>
    <name><![CDATA[Virage à droite]]></name>
  </wpt>
  <wpt lat="48.85889" lon="5.97647">
    <ele>276</ele>
    <name><![CDATA[A droite]]></name>
  </wpt>
  <wpt lat="48.86957" lon="5.98282">
    <ele>324</ele>
    <name><![CDATA[Tranchée du Milieu]]></name>
  </wpt>
  <wpt lat="48.87766" lon="5.97299">
    <ele>340</ele>
    <name><![CDATA[Jonction GR5]]></name>
  </wpt>
  <wpt lat="48.87437" lon="5.99692">
    <ele>287</ele>
    <name><![CDATA[A gauche]]></name>
  </wpt>
  <wpt lat="48.87841" lon="6.01357">
    <ele>337</ele>
    <name><![CDATA[Tout droit]]></name>
  </wpt>
  <wpt lat="48.87167" lon="6.03889">
    <ele>196</ele>
    <name><![CDATA[Au stop à droite]]></name>
  </wpt>
  <wpt lat="48.87132" lon="6.03166">
    <ele>257</ele>
    <name><![CDATA[Parking dans la forêt]]></name>
  </wpt>
  <trk>
    <name><![CDATA[La Croix Charbonnier]]></name>
    <trkseg>
      <trkpt lat="48.8713" lon="6.03163">
        <ele>258</ele>
        <time>2020-11-08T09:59:39+01:00</time>
      </trkpt>
      <trkpt lat="48.87099" lon="6.03111">
        <ele>265</ele>
        <time>2020-11-08T09:59:44+01:00</time>
      </trkpt>
      <trkpt lat="48.87066" lon="6.03056">
        <ele>272</ele>
        <time>2020-11-08T09:59:49+01:00</time>
      </trkpt>
      <trkpt lat="48.87029" lon="6.02989">
        <ele>280</ele>
        <time>2020-11-08T09:59:54+01:00</time>
      </trkpt>
      <trkpt lat="48.87016" lon="6.02924">
        <ele>285</ele>
        <time>2020-11-08T09:59:59+01:00</time>
      </trkpt>
      <trkpt lat="48.86991" lon="6.02767">
        <ele>291</ele>
        <time>2020-11-08T10:00:04+01:00</time>
      </trkpt>
      <trkpt lat="48.86966" lon="6.02612">
        <ele>296</ele>
        <time>2020-11-08T10:00:09+01:00</time>
      </trkpt>
      <trkpt lat="48.86943" lon="6.02403">
        <ele>302</ele>
        <time>2020-11-08T10:00:14+01:00</time>
      </trkpt>
      <trkpt lat="48.86927" lon="6.02242">
        <ele>307</ele>
        <time>2020-11-08T10:00:19+01:00</time>
      </trkpt>
      <trkpt lat="48.86911" lon="6.02182">
        <ele>309</ele>
        <time>2020-11-08T10:00:24+01:00</time>
      </trkpt>
      <trkpt lat="48.86878" lon="6.02076">
        <ele>311</ele>
        <time>2020-11-08T10:00:29+01:00</time>
      </trkpt>
      <trkpt lat="48.86844" lon="6.01977">
        <ele>313</ele>
        <time>2020-11-08T10:00:34+01:00</time>
      </trkpt>
      <trkpt lat="48.86811" lon="6.01905">
        <ele>313</ele>
        <time>2020-11-08T10:00:39+01:00</time>
      </trkpt>
      <trkpt lat="48.8677" lon="6.01815">
        <ele>310</ele>
        <time>2020-11-08T10:00:44+01:00</time>
      </trkpt>
      <trkpt lat="48.86744" lon="6.01748">
        <ele>308</ele>
        <time>2020-11-08T10:00:49+01:00</time>
      </trkpt>
      <trkpt lat="48.86718" lon="6.01654">
        <ele>306</ele>
        <time>2020-11-08T10:00:54+01:00</time>
      </trkpt>
      <trkpt lat="48.86703" lon="6.01593">
        <ele>303</ele>
        <time>2020-11-08T10:00:59+01:00</time>
      </trkpt>
      <trkpt lat="48.86689" lon="6.01532">
        <ele>302</ele>
        <time>2020-11-08T10:01:04+01:00</time>
      </trkpt>
      <trkpt lat="48.86683" lon="6.01506">
        <ele>302</ele>
        <time>2020-11-08T10:01:09+01:00</time>
      </trkpt>
      <trkpt lat="48.86689" lon="6.01387">
        <ele>300</ele>
        <time>2020-11-08T10:01:14+01:00</time>
      </trkpt>
      <trkpt lat="48.86698" lon="6.01176">
        <ele>293</ele>
        <time>2020-11-08T10:01:19+01:00</time>
      </trkpt>
      <trkpt lat="48.86699" lon="6.01112">
        <ele>291</ele>
        <time>2020-11-08T10:01:24+01:00</time>
      </trkpt>
      <trkpt lat="48.86698" lon="6.0107">
        <ele>289</ele>
        <time>2020-11-08T10:01:29+01:00</time>
      </trkpt>
      <trkpt lat="48.86638" lon="6.01032">
        <ele>284</ele>
        <time>2020-11-08T10:01:34+01:00</time>
      </trkpt>
      <trkpt lat="48.86588" lon="6.01022">
        <ele>280</ele>
        <time>2020-11-08T10:01:39+01:00</time>
      </trkpt>
      <trkpt lat="48.86549" lon="6.01017">
        <ele>277</ele>
        <time>2020-11-08T10:01:44+01:00</time>
      </trkpt>
      <trkpt lat="48.86515" lon="6.01008">
        <ele>274</ele>
        <time>2020-11-08T10:01:49+01:00</time>
      </trkpt>
      <trkpt lat="48.86491" lon="6.00998">
        <ele>273</ele>
        <time>2020-11-08T10:01:54+01:00</time>
      </trkpt>
      <trkpt lat="48.86458" lon="6.00985">
        <ele>273</ele>
        <time>2020-11-08T10:01:59+01:00</time>
      </trkpt>
      <trkpt lat="48.86453" lon="6.00984">
        <ele>272</ele>
        <time>2020-11-08T10:02:04+01:00</time>
      </trkpt>
      <trkpt lat="48.86389" lon="6.00894">
        <ele>268</ele>
        <time>2020-11-08T10:02:09+01:00</time>
      </trkpt>
      <trkpt lat="48.86349" lon="6.00837">
        <ele>266</ele>
        <time>2020-11-08T10:02:14+01:00</time>
      </trkpt>
      <trkpt lat="48.86293" lon="6.00768">
        <ele>260</ele>
        <time>2020-11-08T10:02:19+01:00</time>
      </trkpt>
      <trkpt lat="48.8627" lon="6.00742">
        <ele>257</ele>
        <time>2020-11-08T10:02:24+01:00</time>
      </trkpt>
      <trkpt lat="48.86248" lon="6.00711">
        <ele>257</ele>
        <time>2020-11-08T10:02:29+01:00</time>
      </trkpt>
      <trkpt lat="48.86242" lon="6.00701">
        <ele>258</ele>
        <time>2020-11-08T10:02:34+01:00</time>
      </trkpt>
      <trkpt lat="48.86236" lon="6.00683">
        <ele>259</ele>
        <time>2020-11-08T10:02:39+01:00</time>
      </trkpt>
      <trkpt lat="48.86228" lon="6.00655">
        <ele>260</ele>
        <time>2020-11-08T10:02:44+01:00</time>
      </trkpt>
      <trkpt lat="48.86221" lon="6.0063">
        <ele>260</ele>
        <time>2020-11-08T10:02:49+01:00</time>
      </trkpt>
      <trkpt lat="48.86218" lon="6.00615">
        <ele>261</ele>
        <time>2020-11-08T10:02:54+01:00</time>
      </trkpt>
      <trkpt lat="48.86209" lon="6.00592">
        <ele>261</ele>
        <time>2020-11-08T10:02:59+01:00</time>
      </trkpt>
      <trkpt lat="48.86214" lon="6.00571">
        <ele>261</ele>
        <time>2020-11-08T10:03:04+01:00</time>
      </trkpt>
      <trkpt lat="48.86225" lon="6.00557">
        <ele>261</ele>
        <time>2020-11-08T10:03:09+01:00</time>
      </trkpt>
      <trkpt lat="48.86242" lon="6.00543">
        <ele>261</ele>
        <time>2020-11-08T10:03:14+01:00</time>
      </trkpt>
      <trkpt lat="48.86259" lon="6.00541">
        <ele>262</ele>
        <time>2020-11-08T10:03:19+01:00</time>
      </trkpt>
      <trkpt lat="48.86282" lon="6.0054">
        <ele>262</ele>
        <time>2020-11-08T10:03:24+01:00</time>
      </trkpt>
      <trkpt lat="48.86296" lon="6.00537">
        <ele>262</ele>
        <time>2020-11-08T10:03:29+01:00</time>
      </trkpt>
      <trkpt lat="48.8632" lon="6.00522">
        <ele>262</ele>
        <time>2020-11-08T10:03:34+01:00</time>
      </trkpt>
      <trkpt lat="48.86338" lon="6.00508">
        <ele>262</ele>
        <time>2020-11-08T10:03:39+01:00</time>
      </trkpt>
      <trkpt lat="48.86356" lon="6.00489">
        <ele>263</ele>
        <time>2020-11-08T10:03:44+01:00</time>
      </trkpt>
      <trkpt lat="48.86369" lon="6.0047">
        <ele>264</ele>
        <time>2020-11-08T10:03:49+01:00</time>
      </trkpt>
      <trkpt lat="48.86377" lon="6.00441">
        <ele>265</ele>
        <time>2020-11-08T10:03:54+01:00</time>
      </trkpt>
      <trkpt lat="48.86382" lon="6.00406">
        <ele>265</ele>
        <time>2020-11-08T10:03:59+01:00</time>
      </trkpt>
      <trkpt lat="48.86385" lon="6.0037">
        <ele>265</ele>
        <time>2020-11-08T10:04:04+01:00</time>
      </trkpt>
      <trkpt lat="48.86385" lon="6.00317">
        <ele>265</ele>
        <time>2020-11-08T10:04:09+01:00</time>
      </trkpt>
      <trkpt lat="48.86385" lon="6.00288">
        <ele>266</ele>
        <time>2020-11-08T10:04:14+01:00</time>
      </trkpt>
      <trkpt lat="48.86389" lon="6.00234">
        <ele>266</ele>
        <time>2020-11-08T10:04:19+01:00</time>
      </trkpt>
      <trkpt lat="48.86391" lon="6.00196">
        <ele>265</ele>
        <time>2020-11-08T10:04:24+01:00</time>
      </trkpt>
      <trkpt lat="48.86392" lon="6.00139">
        <ele>264</ele>
        <time>2020-11-08T10:04:29+01:00</time>
      </trkpt>
      <trkpt lat="48.86375" lon="6.00096">
        <ele>264</ele>
        <time>2020-11-08T10:04:34+01:00</time>
      </trkpt>
      <trkpt lat="48.86328" lon="5.99973">
        <ele>266</ele>
        <time>2020-11-08T10:04:39+01:00</time>
      </trkpt>
      <trkpt lat="48.8627" lon="5.99815">
        <ele>273</ele>
        <time>2020-11-08T10:04:44+01:00</time>
      </trkpt>
      <trkpt lat="48.86184" lon="5.99581">
        <ele>281</ele>
        <time>2020-11-08T10:04:49+01:00</time>
      </trkpt>
      <trkpt lat="48.86092" lon="5.99331">
        <ele>301</ele>
        <time>2020-11-08T10:04:54+01:00</time>
      </trkpt>
      <trkpt lat="48.86038" lon="5.99186">
        <ele>301</ele>
        <time>2020-11-08T10:04:59+01:00</time>
      </trkpt>
      <trkpt lat="48.8599" lon="5.99055">
        <ele>302</ele>
        <time>2020-11-08T10:05:04+01:00</time>
      </trkpt>
      <trkpt lat="48.8596" lon="5.98976">
        <ele>301</ele>
        <time>2020-11-08T10:05:09+01:00</time>
      </trkpt>
      <trkpt lat="48.85918" lon="5.98861">
        <ele>301</ele>
        <time>2020-11-08T10:05:14+01:00</time>
      </trkpt>
      <trkpt lat="48.85866" lon="5.98718">
        <ele>299</ele>
        <time>2020-11-08T10:05:19+01:00</time>
      </trkpt>
      <trkpt lat="48.85812" lon="5.98574">
        <ele>299</ele>
        <time>2020-11-08T10:05:24+01:00</time>
      </trkpt>
      <trkpt lat="48.85809" lon="5.98561">
        <ele>299</ele>
        <time>2020-11-08T10:05:29+01:00</time>
      </trkpt>
      <trkpt lat="48.85805" lon="5.98542">
        <ele>300</ele>
        <time>2020-11-08T10:05:34+01:00</time>
      </trkpt>
      <trkpt lat="48.858" lon="5.98502">
        <ele>300</ele>
        <time>2020-11-08T10:05:39+01:00</time>
      </trkpt>
      <trkpt lat="48.85789" lon="5.98388">
        <ele>301</ele>
        <time>2020-11-08T10:05:44+01:00</time>
      </trkpt>
      <trkpt lat="48.85784" lon="5.98317">
        <ele>301</ele>
        <time>2020-11-08T10:05:49+01:00</time>
      </trkpt>
      <trkpt lat="48.85841" lon="5.98175">
        <ele>302</ele>
        <time>2020-11-08T10:05:54+01:00</time>
      </trkpt>
      <trkpt lat="48.85865" lon="5.98145">
        <ele>301</ele>
        <time>2020-11-08T10:05:59+01:00</time>
      </trkpt>
      <trkpt lat="48.85906" lon="5.98093">
        <ele>300</ele>
        <time>2020-11-08T10:06:04+01:00</time>
      </trkpt>
      <trkpt lat="48.85994" lon="5.97985">
        <ele>297</ele>
        <time>2020-11-08T10:06:09+01:00</time>
      </trkpt>
      <trkpt lat="48.85999" lon="5.97975">
        <ele>297</ele>
        <time>2020-11-08T10:06:14+01:00</time>
      </trkpt>
      <trkpt lat="48.86001" lon="5.9796">
        <ele>297</ele>
        <time>2020-11-08T10:06:19+01:00</time>
      </trkpt>
      <trkpt lat="48.86" lon="5.97946">
        <ele>296</ele>
        <time>2020-11-08T10:06:24+01:00</time>
      </trkpt>
      <trkpt lat="48.85994" lon="5.97917">
        <ele>295</ele>
        <time>2020-11-08T10:06:29+01:00</time>
      </trkpt>
      <trkpt lat="48.85978" lon="5.97842">
        <ele>293</ele>
        <time>2020-11-08T10:06:34+01:00</time>
      </trkpt>
      <trkpt lat="48.85964" lon="5.97802">
        <ele>291</ele>
        <time>2020-11-08T10:06:39+01:00</time>
      </trkpt>
      <trkpt lat="48.85949" lon="5.97771">
        <ele>289</ele>
        <time>2020-11-08T10:06:44+01:00</time>
      </trkpt>
      <trkpt lat="48.8594" lon="5.97749">
        <ele>286</ele>
        <time>2020-11-08T10:06:49+01:00</time>
      </trkpt>
      <trkpt lat="48.85933" lon="5.97725">
        <ele>283</ele>
        <time>2020-11-08T10:06:54+01:00</time>
      </trkpt>
      <trkpt lat="48.85927" lon="5.97709">
        <ele>281</ele>
        <time>2020-11-08T10:06:59+01:00</time>
      </trkpt>
      <trkpt lat="48.85918" lon="5.97695">
        <ele>279</ele>
        <time>2020-11-08T10:07:04+01:00</time>
      </trkpt>
      <trkpt lat="48.85904" lon="5.97679">
        <ele>277</ele>
        <time>2020-11-08T10:07:09+01:00</time>
      </trkpt>
      <trkpt lat="48.85894" lon="5.97665">
        <ele>275</ele>
        <time>2020-11-08T10:07:14+01:00</time>
      </trkpt>
      <trkpt lat="48.8589" lon="5.97657">
        <ele>275</ele>
        <time>2020-11-08T10:07:19+01:00</time>
      </trkpt>
      <trkpt lat="48.85889" lon="5.97647">
        <ele>276</ele>
        <time>2020-11-08T10:07:24+01:00</time>
      </trkpt>
      <trkpt lat="48.85895" lon="5.97632">
        <ele>276</ele>
        <time>2020-11-08T10:07:29+01:00</time>
      </trkpt>
      <trkpt lat="48.85904" lon="5.97627">
        <ele>276</ele>
        <time>2020-11-08T10:07:34+01:00</time>
      </trkpt>
      <trkpt lat="48.85924" lon="5.97624">
        <ele>277</ele>
        <time>2020-11-08T10:07:39+01:00</time>
      </trkpt>
      <trkpt lat="48.85947" lon="5.97618">
        <ele>279</ele>
        <time>2020-11-08T10:07:44+01:00</time>
      </trkpt>
      <trkpt lat="48.85971" lon="5.97611">
        <ele>280</ele>
        <time>2020-11-08T10:07:49+01:00</time>
      </trkpt>
      <trkpt lat="48.85989" lon="5.97607">
        <ele>280</ele>
        <time>2020-11-08T10:07:54+01:00</time>
      </trkpt>
      <trkpt lat="48.8607" lon="5.97598">
        <ele>282</ele>
        <time>2020-11-08T10:07:59+01:00</time>
      </trkpt>
      <trkpt lat="48.86084" lon="5.9759">
        <ele>281</ele>
        <time>2020-11-08T10:08:04+01:00</time>
      </trkpt>
      <trkpt lat="48.86098" lon="5.97573">
        <ele>282</ele>
        <time>2020-11-08T10:08:09+01:00</time>
      </trkpt>
      <trkpt lat="48.86115" lon="5.97551">
        <ele>284</ele>
        <time>2020-11-08T10:08:14+01:00</time>
      </trkpt>
      <trkpt lat="48.86127" lon="5.9753">
        <ele>285</ele>
        <time>2020-11-08T10:08:19+01:00</time>
      </trkpt>
      <trkpt lat="48.86142" lon="5.97497">
        <ele>286</ele>
        <time>2020-11-08T10:08:24+01:00</time>
      </trkpt>
      <trkpt lat="48.86159" lon="5.97448">
        <ele>288</ele>
        <time>2020-11-08T10:08:29+01:00</time>
      </trkpt>
      <trkpt lat="48.86169" lon="5.97416">
        <ele>288</ele>
        <time>2020-11-08T10:08:34+01:00</time>
      </trkpt>
      <trkpt lat="48.86187" lon="5.97385">
        <ele>291</ele>
        <time>2020-11-08T10:08:39+01:00</time>
      </trkpt>
      <trkpt lat="48.86209" lon="5.97353">
        <ele>292</ele>
        <time>2020-11-08T10:08:44+01:00</time>
      </trkpt>
      <trkpt lat="48.86227" lon="5.97329">
        <ele>292</ele>
        <time>2020-11-08T10:08:49+01:00</time>
      </trkpt>
      <trkpt lat="48.86248" lon="5.97311">
        <ele>293</ele>
        <time>2020-11-08T10:08:54+01:00</time>
      </trkpt>
      <trkpt lat="48.86272" lon="5.97297">
        <ele>295</ele>
        <time>2020-11-08T10:08:59+01:00</time>
      </trkpt>
      <trkpt lat="48.86303" lon="5.97279">
        <ele>296</ele>
        <time>2020-11-08T10:09:04+01:00</time>
      </trkpt>
      <trkpt lat="48.86322" lon="5.97264">
        <ele>295</ele>
        <time>2020-11-08T10:09:09+01:00</time>
      </trkpt>
      <trkpt lat="48.86343" lon="5.97245">
        <ele>295</ele>
        <time>2020-11-08T10:09:14+01:00</time>
      </trkpt>
      <trkpt lat="48.86361" lon="5.9723">
        <ele>298</ele>
        <time>2020-11-08T10:09:19+01:00</time>
      </trkpt>
      <trkpt lat="48.86374" lon="5.97222">
        <ele>299</ele>
        <time>2020-11-08T10:09:24+01:00</time>
      </trkpt>
      <trkpt lat="48.86387" lon="5.97214">
        <ele>300</ele>
        <time>2020-11-08T10:09:29+01:00</time>
      </trkpt>
      <trkpt lat="48.864" lon="5.97213">
        <ele>301</ele>
        <time>2020-11-08T10:09:34+01:00</time>
      </trkpt>
      <trkpt lat="48.8642" lon="5.97215">
        <ele>302</ele>
        <time>2020-11-08T10:09:39+01:00</time>
      </trkpt>
      <trkpt lat="48.86445" lon="5.97216">
        <ele>304</ele>
        <time>2020-11-08T10:09:44+01:00</time>
      </trkpt>
      <trkpt lat="48.86471" lon="5.97219">
        <ele>306</ele>
        <time>2020-11-08T10:09:49+01:00</time>
      </trkpt>
      <trkpt lat="48.86488" lon="5.97223">
        <ele>307</ele>
        <time>2020-11-08T10:09:54+01:00</time>
      </trkpt>
      <trkpt lat="48.86511" lon="5.97236">
        <ele>309</ele>
        <time>2020-11-08T10:09:59+01:00</time>
      </trkpt>
      <trkpt lat="48.86536" lon="5.97257">
        <ele>312</ele>
        <time>2020-11-08T10:10:04+01:00</time>
      </trkpt>
      <trkpt lat="48.86557" lon="5.97283">
        <ele>313</ele>
        <time>2020-11-08T10:10:09+01:00</time>
      </trkpt>
      <trkpt lat="48.86579" lon="5.97316">
        <ele>311</ele>
        <time>2020-11-08T10:10:14+01:00</time>
      </trkpt>
      <trkpt lat="48.866" lon="5.97356">
        <ele>311</ele>
        <time>2020-11-08T10:10:19+01:00</time>
      </trkpt>
      <trkpt lat="48.86617" lon="5.97391">
        <ele>312</ele>
        <time>2020-11-08T10:10:24+01:00</time>
      </trkpt>
      <trkpt lat="48.86641" lon="5.97433">
        <ele>312</ele>
        <time>2020-11-08T10:10:29+01:00</time>
      </trkpt>
      <trkpt lat="48.86659" lon="5.97465">
        <ele>313</ele>
        <time>2020-11-08T10:10:34+01:00</time>
      </trkpt>
      <trkpt lat="48.86661" lon="5.97473">
        <ele>313</ele>
        <time>2020-11-08T10:10:39+01:00</time>
      </trkpt>
      <trkpt lat="48.86659" lon="5.97488">
        <ele>313</ele>
        <time>2020-11-08T10:10:44+01:00</time>
      </trkpt>
      <trkpt lat="48.86649" lon="5.97527">
        <ele>314</ele>
        <time>2020-11-08T10:10:49+01:00</time>
      </trkpt>
      <trkpt lat="48.86643" lon="5.97554">
        <ele>314</ele>
        <time>2020-11-08T10:10:54+01:00</time>
      </trkpt>
      <trkpt lat="48.8664" lon="5.9758">
        <ele>315</ele>
        <time>2020-11-08T10:10:59+01:00</time>
      </trkpt>
      <trkpt lat="48.86642" lon="5.97594">
        <ele>315</ele>
        <time>2020-11-08T10:11:04+01:00</time>
      </trkpt>
      <trkpt lat="48.86661" lon="5.97634">
        <ele>316</ele>
        <time>2020-11-08T10:11:09+01:00</time>
      </trkpt>
      <trkpt lat="48.86692" lon="5.97697">
        <ele>317</ele>
        <time>2020-11-08T10:11:14+01:00</time>
      </trkpt>
      <trkpt lat="48.8675" lon="5.97823">
        <ele>318</ele>
        <time>2020-11-08T10:11:19+01:00</time>
      </trkpt>
      <trkpt lat="48.86822" lon="5.97982">
        <ele>321</ele>
        <time>2020-11-08T10:11:24+01:00</time>
      </trkpt>
      <trkpt lat="48.86897" lon="5.98148">
        <ele>320</ele>
        <time>2020-11-08T10:11:29+01:00</time>
      </trkpt>
      <trkpt lat="48.86934" lon="5.98231">
        <ele>322</ele>
        <time>2020-11-08T10:11:34+01:00</time>
      </trkpt>
      <trkpt lat="48.86957" lon="5.98282">
        <ele>324</ele>
        <time>2020-11-08T10:11:39+01:00</time>
      </trkpt>
      <trkpt lat="48.8749" lon="5.97625">
        <ele>340</ele>
        <time>2020-11-08T10:11:44+01:00</time>
      </trkpt>
      <trkpt lat="48.87758" lon="5.97316">
        <ele>339</ele>
        <time>2020-11-08T10:11:49+01:00</time>
      </trkpt>
      <trkpt lat="48.87766" lon="5.97299">
        <ele>340</ele>
        <time>2020-11-08T10:11:54+01:00</time>
      </trkpt>
      <trkpt lat="48.87823" lon="5.97557">
        <ele>329</ele>
        <time>2020-11-08T10:11:59+01:00</time>
      </trkpt>
      <trkpt lat="48.87848" lon="5.97667">
        <ele>324</ele>
        <time>2020-11-08T10:12:04+01:00</time>
      </trkpt>
      <trkpt lat="48.87871" lon="5.97772">
        <ele>323</ele>
        <time>2020-11-08T10:12:09+01:00</time>
      </trkpt>
      <trkpt lat="48.87902" lon="5.97909">
        <ele>322</ele>
        <time>2020-11-08T10:12:14+01:00</time>
      </trkpt>
      <trkpt lat="48.87926" lon="5.98014">
        <ele>321</ele>
        <time>2020-11-08T10:12:19+01:00</time>
      </trkpt>
      <trkpt lat="48.87956" lon="5.98148">
        <ele>315</ele>
        <time>2020-11-08T10:12:24+01:00</time>
      </trkpt>
      <trkpt lat="48.87976" lon="5.9824">
        <ele>314</ele>
        <time>2020-11-08T10:12:29+01:00</time>
      </trkpt>
      <trkpt lat="48.87998" lon="5.9834">
        <ele>313</ele>
        <time>2020-11-08T10:12:34+01:00</time>
      </trkpt>
      <trkpt lat="48.88012" lon="5.98405">
        <ele>310</ele>
        <time>2020-11-08T10:12:39+01:00</time>
      </trkpt>
      <trkpt lat="48.88019" lon="5.98447">
        <ele>310</ele>
        <time>2020-11-08T10:12:44+01:00</time>
      </trkpt>
      <trkpt lat="48.88004" lon="5.98477">
        <ele>308</ele>
        <time>2020-11-08T10:12:49+01:00</time>
      </trkpt>
      <trkpt lat="48.87969" lon="5.98557">
        <ele>309</ele>
        <time>2020-11-08T10:12:54+01:00</time>
      </trkpt>
      <trkpt lat="48.87936" lon="5.98631">
        <ele>308</ele>
        <time>2020-11-08T10:12:59+01:00</time>
      </trkpt>
      <trkpt lat="48.87881" lon="5.98753">
        <ele>307</ele>
        <time>2020-11-08T10:13:04+01:00</time>
      </trkpt>
      <trkpt lat="48.87838" lon="5.9885">
        <ele>304</ele>
        <time>2020-11-08T10:13:09+01:00</time>
      </trkpt>
      <trkpt lat="48.87816" lon="5.98899">
        <ele>305</ele>
        <time>2020-11-08T10:13:14+01:00</time>
      </trkpt>
      <trkpt lat="48.87811" lon="5.98914">
        <ele>305</ele>
        <time>2020-11-08T10:13:19+01:00</time>
      </trkpt>
      <trkpt lat="48.87809" lon="5.98926">
        <ele>305</ele>
        <time>2020-11-08T10:13:24+01:00</time>
      </trkpt>
      <trkpt lat="48.87803" lon="5.98968">
        <ele>305</ele>
        <time>2020-11-08T10:13:29+01:00</time>
      </trkpt>
      <trkpt lat="48.8778" lon="5.99155">
        <ele>301</ele>
        <time>2020-11-08T10:13:34+01:00</time>
      </trkpt>
      <trkpt lat="48.87756" lon="5.99341">
        <ele>296</ele>
        <time>2020-11-08T10:13:39+01:00</time>
      </trkpt>
      <trkpt lat="48.87754" lon="5.99358">
        <ele>296</ele>
        <time>2020-11-08T10:13:44+01:00</time>
      </trkpt>
      <trkpt lat="48.87746" lon="5.99388">
        <ele>295</ele>
        <time>2020-11-08T10:13:49+01:00</time>
      </trkpt>
      <trkpt lat="48.87722" lon="5.99476">
        <ele>298</ele>
        <time>2020-11-08T10:13:54+01:00</time>
      </trkpt>
      <trkpt lat="48.87691" lon="5.99582">
        <ele>298</ele>
        <time>2020-11-08T10:13:59+01:00</time>
      </trkpt>
      <trkpt lat="48.87679" lon="5.99618">
        <ele>296</ele>
        <time>2020-11-08T10:14:04+01:00</time>
      </trkpt>
      <trkpt lat="48.8767" lon="5.99634">
        <ele>294</ele>
        <time>2020-11-08T10:14:09+01:00</time>
      </trkpt>
      <trkpt lat="48.8765" lon="5.99662">
        <ele>292</ele>
        <time>2020-11-08T10:14:14+01:00</time>
      </trkpt>
      <trkpt lat="48.87633" lon="5.99675">
        <ele>291</ele>
        <time>2020-11-08T10:14:19+01:00</time>
      </trkpt>
      <trkpt lat="48.87624" lon="5.99676">
        <ele>291</ele>
        <time>2020-11-08T10:14:24+01:00</time>
      </trkpt>
      <trkpt lat="48.87612" lon="5.99675">
        <ele>290</ele>
        <time>2020-11-08T10:14:29+01:00</time>
      </trkpt>
      <trkpt lat="48.87596" lon="5.99671">
        <ele>289</ele>
        <time>2020-11-08T10:14:34+01:00</time>
      </trkpt>
      <trkpt lat="48.87516" lon="5.9965">
        <ele>288</ele>
        <time>2020-11-08T10:14:39+01:00</time>
      </trkpt>
      <trkpt lat="48.87506" lon="5.99649">
        <ele>288</ele>
        <time>2020-11-08T10:14:44+01:00</time>
      </trkpt>
      <trkpt lat="48.87494" lon="5.99651">
        <ele>288</ele>
        <time>2020-11-08T10:14:49+01:00</time>
      </trkpt>
      <trkpt lat="48.8748" lon="5.99656">
        <ele>288</ele>
        <time>2020-11-08T10:14:54+01:00</time>
      </trkpt>
      <trkpt lat="48.87463" lon="5.99669">
        <ele>287</ele>
        <time>2020-11-08T10:14:59+01:00</time>
      </trkpt>
      <trkpt lat="48.87452" lon="5.99679">
        <ele>287</ele>
        <time>2020-11-08T10:15:04+01:00</time>
      </trkpt>
      <trkpt lat="48.87437" lon="5.99692">
        <ele>287</ele>
        <time>2020-11-08T10:15:09+01:00</time>
      </trkpt>
      <trkpt lat="48.87471" lon="5.99787">
        <ele>289</ele>
        <time>2020-11-08T10:15:14+01:00</time>
      </trkpt>
      <trkpt lat="48.87476" lon="5.99809">
        <ele>290</ele>
        <time>2020-11-08T10:15:19+01:00</time>
      </trkpt>
      <trkpt lat="48.8748" lon="5.99844">
        <ele>292</ele>
        <time>2020-11-08T10:15:24+01:00</time>
      </trkpt>
      <trkpt lat="48.87484" lon="5.99879">
        <ele>294</ele>
        <time>2020-11-08T10:15:29+01:00</time>
      </trkpt>
      <trkpt lat="48.87489" lon="5.99953">
        <ele>299</ele>
        <time>2020-11-08T10:15:34+01:00</time>
      </trkpt>
      <trkpt lat="48.87493" lon="5.99993">
        <ele>303</ele>
        <time>2020-11-08T10:15:39+01:00</time>
      </trkpt>
      <trkpt lat="48.87496" lon="6.0002">
        <ele>304</ele>
        <time>2020-11-08T10:15:44+01:00</time>
      </trkpt>
      <trkpt lat="48.87504" lon="6.00063">
        <ele>306</ele>
        <time>2020-11-08T10:15:49+01:00</time>
      </trkpt>
      <trkpt lat="48.87514" lon="6.00105">
        <ele>308</ele>
        <time>2020-11-08T10:15:54+01:00</time>
      </trkpt>
      <trkpt lat="48.87538" lon="6.00205">
        <ele>311</ele>
        <time>2020-11-08T10:15:59+01:00</time>
      </trkpt>
      <trkpt lat="48.87589" lon="6.00412">
        <ele>313</ele>
        <time>2020-11-08T10:16:04+01:00</time>
      </trkpt>
      <trkpt lat="48.87608" lon="6.00489">
        <ele>317</ele>
        <time>2020-11-08T10:16:09+01:00</time>
      </trkpt>
      <trkpt lat="48.87615" lon="6.00513">
        <ele>318</ele>
        <time>2020-11-08T10:16:14+01:00</time>
      </trkpt>
      <trkpt lat="48.87627" lon="6.00547">
        <ele>319</ele>
        <time>2020-11-08T10:16:19+01:00</time>
      </trkpt>
      <trkpt lat="48.87633" lon="6.00559">
        <ele>320</ele>
        <time>2020-11-08T10:16:24+01:00</time>
      </trkpt>
      <trkpt lat="48.87656" lon="6.00636">
        <ele>322</ele>
        <time>2020-11-08T10:16:29+01:00</time>
      </trkpt>
      <trkpt lat="48.87678" lon="6.00703">
        <ele>324</ele>
        <time>2020-11-08T10:16:34+01:00</time>
      </trkpt>
      <trkpt lat="48.87714" lon="6.00819">
        <ele>329</ele>
        <time>2020-11-08T10:16:39+01:00</time>
      </trkpt>
      <trkpt lat="48.87746" lon="6.00919">
        <ele>330</ele>
        <time>2020-11-08T10:16:44+01:00</time>
      </trkpt>
      <trkpt lat="48.87807" lon="6.01114">
        <ele>335</ele>
        <time>2020-11-08T10:16:49+01:00</time>
      </trkpt>
      <trkpt lat="48.87828" lon="6.01178">
        <ele>334</ele>
        <time>2020-11-08T10:16:54+01:00</time>
      </trkpt>
      <trkpt lat="48.87847" lon="6.01242">
        <ele>336</ele>
        <time>2020-11-08T10:16:59+01:00</time>
      </trkpt>
      <trkpt lat="48.87848" lon="6.01244">
        <ele>336</ele>
        <time>2020-11-08T10:17:04+01:00</time>
      </trkpt>
      <trkpt lat="48.87851" lon="6.01267">
        <ele>336</ele>
        <time>2020-11-08T10:17:09+01:00</time>
      </trkpt>
      <trkpt lat="48.87851" lon="6.01288">
        <ele>337</ele>
        <time>2020-11-08T10:17:14+01:00</time>
      </trkpt>
      <trkpt lat="48.87851" lon="6.01309">
        <ele>337</ele>
        <time>2020-11-08T10:17:19+01:00</time>
      </trkpt>
      <trkpt lat="48.87848" lon="6.01326">
        <ele>337</ele>
        <time>2020-11-08T10:17:24+01:00</time>
      </trkpt>
      <trkpt lat="48.87845" lon="6.01344">
        <ele>337</ele>
        <time>2020-11-08T10:17:29+01:00</time>
      </trkpt>
      <trkpt lat="48.87841" lon="6.01357">
        <ele>337</ele>
        <time>2020-11-08T10:17:34+01:00</time>
      </trkpt>
      <trkpt lat="48.87794" lon="6.01503">
        <ele>334</ele>
        <time>2020-11-08T10:17:39+01:00</time>
      </trkpt>
      <trkpt lat="48.87756" lon="6.01626">
        <ele>327</ele>
        <time>2020-11-08T10:17:44+01:00</time>
      </trkpt>
      <trkpt lat="48.87753" lon="6.01639">
        <ele>327</ele>
        <time>2020-11-08T10:17:49+01:00</time>
      </trkpt>
      <trkpt lat="48.87753" lon="6.01648">
        <ele>326</ele>
        <time>2020-11-08T10:17:54+01:00</time>
      </trkpt>
      <trkpt lat="48.87755" lon="6.01658">
        <ele>325</ele>
        <time>2020-11-08T10:17:59+01:00</time>
      </trkpt>
      <trkpt lat="48.8778" lon="6.0172">
        <ele>321</ele>
        <time>2020-11-08T10:18:04+01:00</time>
      </trkpt>
      <trkpt lat="48.87788" lon="6.0175">
        <ele>319</ele>
        <time>2020-11-08T10:18:09+01:00</time>
      </trkpt>
      <trkpt lat="48.87797" lon="6.01782">
        <ele>317</ele>
        <time>2020-11-08T10:18:14+01:00</time>
      </trkpt>
      <trkpt lat="48.87802" lon="6.01821">
        <ele>316</ele>
        <time>2020-11-08T10:18:19+01:00</time>
      </trkpt>
      <trkpt lat="48.87805" lon="6.0185">
        <ele>315</ele>
        <time>2020-11-08T10:18:24+01:00</time>
      </trkpt>
      <trkpt lat="48.87805" lon="6.01879">
        <ele>314</ele>
        <time>2020-11-08T10:18:29+01:00</time>
      </trkpt>
      <trkpt lat="48.87803" lon="6.01914">
        <ele>314</ele>
        <time>2020-11-08T10:18:34+01:00</time>
      </trkpt>
      <trkpt lat="48.87796" lon="6.01954">
        <ele>313</ele>
        <time>2020-11-08T10:18:39+01:00</time>
      </trkpt>
      <trkpt lat="48.8779" lon="6.01984">
        <ele>313</ele>
        <time>2020-11-08T10:18:44+01:00</time>
      </trkpt>
      <trkpt lat="48.8778" lon="6.02017">
        <ele>312</ele>
        <time>2020-11-08T10:18:49+01:00</time>
      </trkpt>
      <trkpt lat="48.8777" lon="6.0204">
        <ele>311</ele>
        <time>2020-11-08T10:18:54+01:00</time>
      </trkpt>
      <trkpt lat="48.87758" lon="6.02065">
        <ele>310</ele>
        <time>2020-11-08T10:18:59+01:00</time>
      </trkpt>
      <trkpt lat="48.87744" lon="6.02086">
        <ele>309</ele>
        <time>2020-11-08T10:19:04+01:00</time>
      </trkpt>
      <trkpt lat="48.87722" lon="6.02114">
        <ele>308</ele>
        <time>2020-11-08T10:19:09+01:00</time>
      </trkpt>
      <trkpt lat="48.8766" lon="6.02182">
        <ele>302</ele>
        <time>2020-11-08T10:19:14+01:00</time>
      </trkpt>
      <trkpt lat="48.87648" lon="6.02196">
        <ele>303</ele>
        <time>2020-11-08T10:19:19+01:00</time>
      </trkpt>
      <trkpt lat="48.87642" lon="6.02209">
        <ele>303</ele>
        <time>2020-11-08T10:19:24+01:00</time>
      </trkpt>
      <trkpt lat="48.87635" lon="6.02231">
        <ele>302</ele>
        <time>2020-11-08T10:19:29+01:00</time>
      </trkpt>
      <trkpt lat="48.87629" lon="6.0225">
        <ele>301</ele>
        <time>2020-11-08T10:19:34+01:00</time>
      </trkpt>
      <trkpt lat="48.87626" lon="6.02269">
        <ele>301</ele>
        <time>2020-11-08T10:19:39+01:00</time>
      </trkpt>
      <trkpt lat="48.87623" lon="6.02293">
        <ele>300</ele>
        <time>2020-11-08T10:19:44+01:00</time>
      </trkpt>
      <trkpt lat="48.87621" lon="6.02308">
        <ele>300</ele>
        <time>2020-11-08T10:19:49+01:00</time>
      </trkpt>
      <trkpt lat="48.87623" lon="6.02324">
        <ele>299</ele>
        <time>2020-11-08T10:19:54+01:00</time>
      </trkpt>
      <trkpt lat="48.87612" lon="6.02378">
        <ele>298</ele>
        <time>2020-11-08T10:19:59+01:00</time>
      </trkpt>
      <trkpt lat="48.87606" lon="6.02405">
        <ele>298</ele>
        <time>2020-11-08T10:20:04+01:00</time>
      </trkpt>
      <trkpt lat="48.87585" lon="6.02453">
        <ele>296</ele>
        <time>2020-11-08T10:20:09+01:00</time>
      </trkpt>
      <trkpt lat="48.87543" lon="6.0255">
        <ele>296</ele>
        <time>2020-11-08T10:20:14+01:00</time>
      </trkpt>
      <trkpt lat="48.87469" lon="6.02716">
        <ele>285</ele>
        <time>2020-11-08T10:20:19+01:00</time>
      </trkpt>
      <trkpt lat="48.87456" lon="6.02748">
        <ele>283</ele>
        <time>2020-11-08T10:20:24+01:00</time>
      </trkpt>
      <trkpt lat="48.87435" lon="6.02804">
        <ele>279</ele>
        <time>2020-11-08T10:20:29+01:00</time>
      </trkpt>
      <trkpt lat="48.87418" lon="6.02847">
        <ele>276</ele>
        <time>2020-11-08T10:20:34+01:00</time>
      </trkpt>
      <trkpt lat="48.8739" lon="6.02926">
        <ele>273</ele>
        <time>2020-11-08T10:20:39+01:00</time>
      </trkpt>
      <trkpt lat="48.87372" lon="6.02981">
        <ele>269</ele>
        <time>2020-11-08T10:20:44+01:00</time>
      </trkpt>
      <trkpt lat="48.87341" lon="6.03076">
        <ele>258</ele>
        <time>2020-11-08T10:20:49+01:00</time>
      </trkpt>
      <trkpt lat="48.87324" lon="6.03123">
        <ele>252</ele>
        <time>2020-11-08T10:20:54+01:00</time>
      </trkpt>
      <trkpt lat="48.873" lon="6.03213">
        <ele>244</ele>
        <time>2020-11-08T10:20:59+01:00</time>
      </trkpt>
      <trkpt lat="48.87261" lon="6.03365">
        <ele>235</ele>
        <time>2020-11-08T10:21:04+01:00</time>
      </trkpt>
      <trkpt lat="48.87243" lon="6.03437">
        <ele>232</ele>
        <time>2020-11-08T10:21:09+01:00</time>
      </trkpt>
      <trkpt lat="48.87232" lon="6.03484">
        <ele>229</ele>
        <time>2020-11-08T10:21:14+01:00</time>
      </trkpt>
      <trkpt lat="48.87226" lon="6.03509">
        <ele>228</ele>
        <time>2020-11-08T10:21:19+01:00</time>
      </trkpt>
      <trkpt lat="48.8722" lon="6.03548">
        <ele>224</ele>
        <time>2020-11-08T10:21:24+01:00</time>
      </trkpt>
      <trkpt lat="48.87212" lon="6.03598">
        <ele>219</ele>
        <time>2020-11-08T10:21:29+01:00</time>
      </trkpt>
      <trkpt lat="48.87197" lon="6.03741">
        <ele>207</ele>
        <time>2020-11-08T10:21:34+01:00</time>
      </trkpt>
      <trkpt lat="48.87191" lon="6.0379">
        <ele>203</ele>
        <time>2020-11-08T10:21:39+01:00</time>
      </trkpt>
      <trkpt lat="48.87189" lon="6.03809">
        <ele>201</ele>
        <time>2020-11-08T10:21:44+01:00</time>
      </trkpt>
      <trkpt lat="48.87181" lon="6.03835">
        <ele>199</ele>
        <time>2020-11-08T10:21:49+01:00</time>
      </trkpt>
      <trkpt lat="48.87174" lon="6.03862">
        <ele>198</ele>
        <time>2020-11-08T10:21:54+01:00</time>
      </trkpt>
      <trkpt lat="48.87167" lon="6.03889">
        <ele>196</ele>
        <time>2020-11-08T10:21:59+01:00</time>
      </trkpt>
      <trkpt lat="48.87154" lon="6.03879">
        <ele>197</ele>
        <time>2020-11-08T10:22:04+01:00</time>
      </trkpt>
      <trkpt lat="48.87143" lon="6.03877">
        <ele>198</ele>
        <time>2020-11-08T10:22:09+01:00</time>
      </trkpt>
      <trkpt lat="48.87124" lon="6.03874">
        <ele>199</ele>
        <time>2020-11-08T10:22:14+01:00</time>
      </trkpt>
      <trkpt lat="48.87114" lon="6.0387">
        <ele>199</ele>
        <time>2020-11-08T10:22:19+01:00</time>
      </trkpt>
      <trkpt lat="48.87099" lon="6.03864">
        <ele>200</ele>
        <time>2020-11-08T10:22:24+01:00</time>
      </trkpt>
      <trkpt lat="48.87099" lon="6.03815">
        <ele>205</ele>
        <time>2020-11-08T10:22:29+01:00</time>
      </trkpt>
      <trkpt lat="48.87102" lon="6.0379">
        <ele>208</ele>
        <time>2020-11-08T10:22:34+01:00</time>
      </trkpt>
      <trkpt lat="48.87109" lon="6.03761">
        <ele>211</ele>
        <time>2020-11-08T10:22:39+01:00</time>
      </trkpt>
      <trkpt lat="48.87118" lon="6.03715">
        <ele>215</ele>
        <time>2020-11-08T10:22:44+01:00</time>
      </trkpt>
      <trkpt lat="48.87123" lon="6.03691">
        <ele>217</ele>
        <time>2020-11-08T10:22:49+01:00</time>
      </trkpt>
      <trkpt lat="48.87126" lon="6.03672">
        <ele>218</ele>
        <time>2020-11-08T10:22:54+01:00</time>
      </trkpt>
      <trkpt lat="48.87141" lon="6.03624">
        <ele>222</ele>
        <time>2020-11-08T10:22:59+01:00</time>
      </trkpt>
      <trkpt lat="48.87144" lon="6.03612">
        <ele>223</ele>
        <time>2020-11-08T10:23:04+01:00</time>
      </trkpt>
      <trkpt lat="48.87145" lon="6.036">
        <ele>224</ele>
        <time>2020-11-08T10:23:09+01:00</time>
      </trkpt>
      <trkpt lat="48.87146" lon="6.03589">
        <ele>225</ele>
        <time>2020-11-08T10:23:14+01:00</time>
      </trkpt>
      <trkpt lat="48.87148" lon="6.03576">
        <ele>226</ele>
        <time>2020-11-08T10:23:19+01:00</time>
      </trkpt>
      <trkpt lat="48.87151" lon="6.03557">
        <ele>228</ele>
        <time>2020-11-08T10:23:24+01:00</time>
      </trkpt>
      <trkpt lat="48.87151" lon="6.03538">
        <ele>231</ele>
        <time>2020-11-08T10:23:29+01:00</time>
      </trkpt>
      <trkpt lat="48.87151" lon="6.03517">
        <ele>234</ele>
        <time>2020-11-08T10:23:34+01:00</time>
      </trkpt>
      <trkpt lat="48.8715" lon="6.03498">
        <ele>237</ele>
        <time>2020-11-08T10:23:39+01:00</time>
      </trkpt>
      <trkpt lat="48.8715" lon="6.03484">
        <ele>238</ele>
        <time>2020-11-08T10:23:44+01:00</time>
      </trkpt>
      <trkpt lat="48.87149" lon="6.03473">
        <ele>239</ele>
        <time>2020-11-08T10:23:49+01:00</time>
      </trkpt>
      <trkpt lat="48.87151" lon="6.03429">
        <ele>243</ele>
        <time>2020-11-08T10:23:54+01:00</time>
      </trkpt>
      <trkpt lat="48.87155" lon="6.03379">
        <ele>247</ele>
        <time>2020-11-08T10:23:59+01:00</time>
      </trkpt>
      <trkpt lat="48.87159" lon="6.0334">
        <ele>249</ele>
        <time>2020-11-08T10:24:04+01:00</time>
      </trkpt>
      <trkpt lat="48.87161" lon="6.03315">
        <ele>250</ele>
        <time>2020-11-08T10:24:09+01:00</time>
      </trkpt>
      <trkpt lat="48.87163" lon="6.03298">
        <ele>250</ele>
        <time>2020-11-08T10:24:14+01:00</time>
      </trkpt>
      <trkpt lat="48.87162" lon="6.03289">
        <ele>251</ele>
        <time>2020-11-08T10:24:19+01:00</time>
      </trkpt>
      <trkpt lat="48.87161" lon="6.03279">
        <ele>251</ele>
        <time>2020-11-08T10:24:24+01:00</time>
      </trkpt>
      <trkpt lat="48.87159" lon="6.03268">
        <ele>252</ele>
        <time>2020-11-08T10:24:29+01:00</time>
      </trkpt>
      <trkpt lat="48.87155" lon="6.03252">
        <ele>254</ele>
        <time>2020-11-08T10:24:34+01:00</time>
      </trkpt>
      <trkpt lat="48.8715" lon="6.0323">
        <ele>255</ele>
        <time>2020-11-08T10:24:39+01:00</time>
      </trkpt>
      <trkpt lat="48.87145" lon="6.0321">
        <ele>255</ele>
        <time>2020-11-08T10:24:44+01:00</time>
      </trkpt>
      <trkpt lat="48.8714" lon="6.03191">
        <ele>256</ele>
        <time>2020-11-08T10:24:49+01:00</time>
      </trkpt>
      <trkpt lat="48.87138" lon="6.0318">
        <ele>256</ele>
        <time>2020-11-08T10:24:54+01:00</time>
      </trkpt>
      <trkpt lat="48.87134" lon="6.03169">
        <ele>257</ele>
        <time>2020-11-08T10:24:59+01:00</time>
      </trkpt>
      <trkpt lat="48.87132" lon="6.03166">
        <ele>257</ele>
        <time>2020-11-08T10:25:04+01:00</time>
      </trkpt>
    </trkseg>
  </trk>
</gpx>